sensor_id;sensor_type;location;lat;lon;timestamp;P1;durP1;ratioP1;P2;durP2;ratioP2
24635;SDS011;12772;49.794;10.024;2023-02-28T00:01:31;3.83;;;3.53;;
24635;SDS011;12772;49.794;10.024;2023-02-28T00:05:34;4.27;;;3.80;;
24635;SDS011;12772;49.794;10.024;2023-02-28T00:09:36;3.80;;;3.50;;
24635;SDS011;12772;49.794;10.024;2023-02-28T00:13:39;4.40;;;4.00;;
24635;SDS011;12772;49.794;10.024;2023-02-28T00:17:44;5.20;;;3.70;;
24635;SDS011;12772;49.794;10.024;2023-02-28T00:21:46;5.13;;;3.50;;
24635;SDS011;12772;49.794;10.024;2023-02-28T00:25:48;3.50;;;3.20;;
24635;SDS011;12772;49.794;10.024;2023-02-28T00:29:51;3.30;;;3.07;;
24635;SDS011;12772;49.794;10.024;2023-02-28T00:33:54;3.93;;;3.50;;
24635;SDS011;12772;49.794;10.024;2023-02-28T00:37:56;3.57;;;3.27;;
24635;SDS011;12772;49.794;10.024;2023-02-28T00:41:58;5.23;;;4.03;;
24635;SDS011;12772;49.794;10.024;2023-02-28T00:46:00;4.23;;;3.43;;
24635;SDS011;12772;49.794;10.024;2023-02-28T00:50:03;4.80;;;3.47;;
24635;SDS011;12772;49.794;10.024;2023-02-28T00:54:06;5.23;;;3.90;;
24635;SDS011;12772;49.794;10.024;2023-02-28T00:58:08;4.13;;;3.50;;
24635;SDS011;12772;49.794;10.024;2023-02-28T01:02:10;4.57;;;3.63;;
24635;SDS011;12772;49.794;10.024;2023-02-28T01:06:12;4.27;;;3.57;;
24635;SDS011;12772;49.794;10.024;2023-02-28T01:10:14;4.80;;;3.47;;
24635;SDS011;12772;49.794;10.024;2023-02-28T01:14:17;4.20;;;3.40;;
24635;SDS011;12772;49.794;10.024;2023-02-28T01:18:19;5.77;;;3.80;;
24635;SDS011;12772;49.794;10.024;2023-02-28T01:22:22;3.80;;;3.50;;
24635;SDS011;12772;49.794;10.024;2023-02-28T01:26:24;3.73;;;3.40;;
24635;SDS011;12772;49.794;10.024;2023-02-28T01:30:26;4.20;;;3.70;;
24635;SDS011;12772;49.794;10.024;2023-02-28T01:34:28;4.50;;;3.73;;
24635;SDS011;12772;49.794;10.024;2023-02-28T01:38:30;4.37;;;3.33;;
24635;SDS011;12772;49.794;10.024;2023-02-28T01:42:32;5.03;;;3.67;;
24635;SDS011;12772;49.794;10.024;2023-02-28T01:46:35;5.87;;;3.53;;
24635;SDS011;12772;49.794;10.024;2023-02-28T01:50:38;3.57;;;3.03;;
24635;SDS011;12772;49.794;10.024;2023-02-28T01:54:44;3.60;;;3.30;;
24635;SDS011;12772;49.794;10.024;2023-02-28T01:58:52;6.27;;;3.90;;
24635;SDS011;12772;49.794;10.024;2023-02-28T02:02:56;5.90;;;3.90;;
24635;SDS011;12772;49.794;10.024;2023-02-28T02:07:00;4.67;;;4.27;;
24635;SDS011;12772;49.794;10.024;2023-02-28T02:11:03;4.00;;;3.70;;
24635;SDS011;12772;49.794;10.024;2023-02-28T02:15:31;5.17;;;3.80;;
24635;SDS011;12772;49.794;10.024;2023-02-28T02:24:02;4.27;;;3.87;;
24635;SDS011;12772;49.794;10.024;2023-02-28T02:28:41;5.50;;;3.90;;
24635;SDS011;12772;49.794;10.024;2023-02-28T02:37:31;4.17;;;3.77;;
24635;SDS011;12772;49.794;10.024;2023-02-28T02:41:43;4.80;;;3.97;;
24635;SDS011;12772;49.794;10.024;2023-02-28T02:45:55;5.73;;;3.80;;
24635;SDS011;12772;49.794;10.024;2023-02-28T02:50:01;4.03;;;3.63;;
24635;SDS011;12772;49.794;10.024;2023-02-28T02:54:28;4.40;;;3.73;;
24635;SDS011;12772;49.794;10.024;2023-02-28T02:58:32;4.13;;;3.77;;
24635;SDS011;12772;49.794;10.024;2023-02-28T03:02:42;5.90;;;4.30;;
24635;SDS011;12772;49.794;10.024;2023-02-28T03:06:45;4.93;;;4.20;;
24635;SDS011;12772;49.794;10.024;2023-02-28T03:10:48;4.67;;;4.17;;
24635;SDS011;12772;49.794;10.024;2023-02-28T03:23:19;5.03;;;3.77;;
24635;SDS011;12772;49.794;10.024;2023-02-28T03:27:40;4.37;;;3.97;;
24635;SDS011;12772;49.794;10.024;2023-02-28T03:31:50;4.63;;;4.23;;
24635;SDS011;12772;49.794;10.024;2023-02-28T03:36:17;4.47;;;3.83;;
24635;SDS011;12772;49.794;10.024;2023-02-28T03:40:24;4.30;;;3.90;;
24635;SDS011;12772;49.794;10.024;2023-02-28T03:44:39;4.57;;;3.60;;
24635;SDS011;12772;49.794;10.024;2023-02-28T03:48:57;4.37;;;3.97;;
24635;SDS011;12772;49.794;10.024;2023-02-28T03:53:10;3.93;;;3.60;;
24635;SDS011;12772;49.794;10.024;2023-02-28T03:57:27;4.03;;;3.50;;
24635;SDS011;12772;49.794;10.024;2023-02-28T04:01:43;4.43;;;4.00;;
24635;SDS011;12772;49.794;10.024;2023-02-28T04:05:49;4.80;;;4.33;;
24635;SDS011;12772;49.794;10.024;2023-02-28T04:09:53;4.70;;;4.03;;
24635;SDS011;12772;49.794;10.024;2023-02-28T04:13:55;4.60;;;4.20;;
24635;SDS011;12772;49.794;10.024;2023-02-28T04:17:57;4.20;;;3.90;;
24635;SDS011;12772;49.794;10.024;2023-02-28T04:21:59;5.13;;;4.23;;
24635;SDS011;12772;49.794;10.024;2023-02-28T04:26:01;4.83;;;4.13;;
24635;SDS011;12772;49.794;10.024;2023-02-28T04:30:04;3.93;;;3.53;;
24635;SDS011;12772;49.794;10.024;2023-02-28T04:34:07;4.97;;;4.47;;
24635;SDS011;12772;49.794;10.024;2023-02-28T04:38:09;6.13;;;4.37;;
24635;SDS011;12772;49.794;10.024;2023-02-28T04:42:11;6.07;;;4.33;;
24635;SDS011;12772;49.794;10.024;2023-02-28T04:46:14;4.57;;;4.17;;
24635;SDS011;12772;49.794;10.024;2023-02-28T04:50:16;4.10;;;3.80;;
24635;SDS011;12772;49.794;10.024;2023-02-28T04:54:18;4.77;;;4.07;;
24635;SDS011;12772;49.794;10.024;2023-02-28T04:58:21;6.07;;;4.73;;
24635;SDS011;12772;49.794;10.024;2023-02-28T05:02:23;4.37;;;3.93;;
24635;SDS011;12772;49.794;10.024;2023-02-28T05:06:26;4.53;;;3.67;;
24635;SDS011;12772;49.794;10.024;2023-02-28T05:10:29;5.20;;;3.93;;
24635;SDS011;12772;49.794;10.024;2023-02-28T05:14:31;5.07;;;4.60;;
24635;SDS011;12772;49.794;10.024;2023-02-28T05:18:33;4.70;;;4.27;;
24635;SDS011;12772;49.794;10.024;2023-02-28T05:22:35;4.47;;;4.07;;
24635;SDS011;12772;49.794;10.024;2023-02-28T05:26:38;4.60;;;3.60;;
24635;SDS011;12772;49.794;10.024;2023-02-28T05:30:42;4.27;;;3.47;;
24635;SDS011;12772;49.794;10.024;2023-02-28T05:34:44;5.70;;;4.03;;
24635;SDS011;12772;49.794;10.024;2023-02-28T05:38:47;4.87;;;4.13;;
24635;SDS011;12772;49.794;10.024;2023-02-28T05:42:50;5.47;;;4.20;;
24635;SDS011;12772;49.794;10.024;2023-02-28T05:46:52;4.27;;;3.87;;
24635;SDS011;12772;49.794;10.024;2023-02-28T05:50:54;6.13;;;4.30;;
24635;SDS011;12772;49.794;10.024;2023-02-28T05:54:58;5.10;;;4.43;;
24635;SDS011;12772;49.794;10.024;2023-02-28T05:59:00;4.83;;;4.30;;
24635;SDS011;12772;49.794;10.024;2023-02-28T06:03:02;6.30;;;4.30;;
24635;SDS011;12772;49.794;10.024;2023-02-28T06:07:04;6.57;;;4.70;;
24635;SDS011;12772;49.794;10.024;2023-02-28T06:11:06;6.10;;;4.03;;
24635;SDS011;12772;49.794;10.024;2023-02-28T06:15:12;4.83;;;3.77;;
24635;SDS011;12772;49.794;10.024;2023-02-28T06:19:14;5.03;;;4.40;;
24635;SDS011;12772;49.794;10.024;2023-02-28T06:23:17;3.43;;;3.10;;
24635;SDS011;12772;49.794;10.024;2023-02-28T06:27:18;6.23;;;3.97;;
24635;SDS011;12772;49.794;10.024;2023-02-28T06:31:21;3.83;;;3.43;;
24635;SDS011;12772;49.794;10.024;2023-02-28T06:35:23;3.63;;;3.33;;
24635;SDS011;12772;49.794;10.024;2023-02-28T06:39:25;4.63;;;3.97;;
24635;SDS011;12772;49.794;10.024;2023-02-28T06:43:28;4.10;;;3.33;;
24635;SDS011;12772;49.794;10.024;2023-02-28T06:47:35;4.03;;;3.63;;
24635;SDS011;12772;49.794;10.024;2023-02-28T06:51:41;4.70;;;3.57;;
24635;SDS011;12772;49.794;10.024;2023-02-28T06:55:46;6.60;;;4.00;;
24635;SDS011;12772;49.794;10.024;2023-02-28T06:59:48;5.23;;;4.00;;
24635;SDS011;12772;49.794;10.024;2023-02-28T07:03:50;4.10;;;3.70;;
24635;SDS011;12772;49.794;10.024;2023-02-28T07:07:53;4.00;;;3.60;;
24635;SDS011;12772;49.794;10.024;2023-02-28T07:11:57;4.27;;;3.60;;
24635;SDS011;12772;49.794;10.024;2023-02-28T07:16:04;6.13;;;3.70;;
24635;SDS011;12772;49.794;10.024;2023-02-28T07:20:08;4.50;;;4.10;;
24635;SDS011;12772;49.794;10.024;2023-02-28T07:24:10;4.40;;;4.00;;
24635;SDS011;12772;49.794;10.024;2023-02-28T07:28:13;6.33;;;3.80;;
24635;SDS011;12772;49.794;10.024;2023-02-28T07:32:15;3.93;;;3.50;;
24635;SDS011;12772;49.794;10.024;2023-02-28T07:36:17;5.30;;;4.30;;
24635;SDS011;12772;49.794;10.024;2023-02-28T07:40:19;6.67;;;3.97;;
24635;SDS011;12772;49.794;10.024;2023-02-28T07:44:22;6.80;;;4.70;;
24635;SDS011;12772;49.794;10.024;2023-02-28T07:48:24;5.03;;;4.50;;
24635;SDS011;12772;49.794;10.024;2023-02-28T07:52:26;5.60;;;5.10;;
24635;SDS011;12772;49.794;10.024;2023-02-28T07:56:28;7.33;;;4.53;;
24635;SDS011;12772;49.794;10.024;2023-02-28T08:00:30;4.30;;;3.90;;
24635;SDS011;12772;49.794;10.024;2023-02-28T08:04:33;5.07;;;4.57;;
24635;SDS011;12772;49.794;10.024;2023-02-28T08:08:35;6.27;;;4.83;;
24635;SDS011;12772;49.794;10.024;2023-02-28T08:12:37;6.23;;;5.50;;
24635;SDS011;12772;49.794;10.024;2023-02-28T08:16:39;5.17;;;4.53;;
24635;SDS011;12772;49.794;10.024;2023-02-28T08:20:43;5.67;;;5.10;;
24635;SDS011;12772;49.794;10.024;2023-02-28T08:24:45;6.50;;;5.30;;
24635;SDS011;12772;49.794;10.024;2023-02-28T08:28:47;6.47;;;5.53;;
24635;SDS011;12772;49.794;10.024;2023-02-28T08:32:49;8.20;;;6.10;;
24635;SDS011;12772;49.794;10.024;2023-02-28T08:36:51;8.83;;;7.93;;
24635;SDS011;12772;49.794;10.024;2023-02-28T08:41:00;6.70;;;5.97;;
24635;SDS011;12772;49.794;10.024;2023-02-28T08:45:04;7.00;;;6.30;;
24635;SDS011;12772;49.794;10.024;2023-02-28T08:49:06;8.57;;;6.10;;
24635;SDS011;12772;49.794;10.024;2023-02-28T08:53:10;11.20;;;7.53;;
24635;SDS011;12772;49.794;10.024;2023-02-28T08:57:14;8.27;;;6.90;;
24635;SDS011;12772;49.794;10.024;2023-02-28T09:01:20;11.90;;;6.60;;
24635;SDS011;12772;49.794;10.024;2023-02-28T09:05:24;6.35;;;5.70;;
24635;SDS011;12772;49.794;10.024;2023-02-28T09:09:26;7.18;;;6.45;;
24635;SDS011;12772;49.794;10.024;2023-02-28T09:13:28;7.90;;;6.78;;
24635;SDS011;12772;49.794;10.024;2023-02-28T09:17:31;9.50;;;6.72;;
24635;SDS011;12772;49.794;10.024;2023-02-28T09:21:33;9.87;;;7.33;;
24635;SDS011;12772;49.794;10.024;2023-02-28T09:25:35;10.02;;;6.45;;
24635;SDS011;12772;49.794;10.024;2023-02-28T09:29:37;7.03;;;6.28;;
24635;SDS011;12772;49.794;10.024;2023-02-28T09:33:39;9.45;;;6.65;;
24635;SDS011;12772;49.794;10.024;2023-02-28T09:37:41;8.13;;;6.55;;
24635;SDS011;12772;49.794;10.024;2023-02-28T09:41:44;6.65;;;6.00;;
24635;SDS011;12772;49.794;10.024;2023-02-28T09:45:56;7.13;;;5.80;;
24635;SDS011;12772;49.794;10.024;2023-02-28T09:50:08;9.13;;;5.68;;
24635;SDS011;12772;49.794;10.024;2023-02-28T09:54:28;5.78;;;5.28;;
24635;SDS011;12772;49.794;10.024;2023-02-28T10:12:00;9.93;;;6.80;;
24635;SDS011;12772;49.794;10.024;2023-02-28T10:16:06;7.53;;;6.82;;
24635;SDS011;12772;49.794;10.024;2023-02-28T10:20:14;6.85;;;6.15;;
24635;SDS011;12772;49.794;10.024;2023-02-28T10:24:23;7.68;;;6.43;;
24635;SDS011;12772;49.794;10.024;2023-02-28T10:28:29;6.85;;;6.22;;
24635;SDS011;12772;49.794;10.024;2023-02-28T10:32:33;7.53;;;6.53;;
24635;SDS011;12772;49.794;10.024;2023-02-28T10:36:36;9.30;;;6.90;;
24635;SDS011;12772;49.794;10.024;2023-02-28T10:40:39;8.73;;;6.68;;
24635;SDS011;12772;49.794;10.024;2023-02-28T10:44:41;7.35;;;6.40;;
24635;SDS011;12772;49.794;10.024;2023-02-28T10:48:47;8.07;;;6.50;;
24635;SDS011;12772;49.794;10.024;2023-02-28T10:57:26;8.85;;;7.22;;
24635;SDS011;12772;49.794;10.024;2023-02-28T11:05:34;7.38;;;6.00;;
24635;SDS011;12772;49.794;10.024;2023-02-28T11:09:38;7.63;;;6.70;;
24635;SDS011;12772;49.794;10.024;2023-02-28T11:13:44;9.60;;;7.35;;
24635;SDS011;12772;49.794;10.024;2023-02-28T11:17:54;8.52;;;6.63;;
24635;SDS011;12772;49.794;10.024;2023-02-28T11:22:25;8.60;;;6.78;;
24635;SDS011;12772;49.794;10.024;2023-02-28T11:31:02;7.40;;;6.55;;
24635;SDS011;12772;49.794;10.024;2023-02-28T11:39:11;8.18;;;7.05;;
24635;SDS011;12772;49.794;10.024;2023-02-28T11:43:32;7.95;;;7.15;;
24635;SDS011;12772;49.794;10.024;2023-02-28T11:52:35;6.07;;;5.47;;
24635;SDS011;12772;49.794;10.024;2023-02-28T11:56:57;7.40;;;6.50;;
24635;SDS011;12772;49.794;10.024;2023-02-28T12:10:20;6.18;;;5.50;;
24635;SDS011;12772;49.794;10.024;2023-02-28T12:14:31;6.90;;;6.20;;
24635;SDS011;12772;49.794;10.024;2023-02-28T12:23:27;6.82;;;6.18;;
24635;SDS011;12772;49.794;10.024;2023-02-28T12:27:58;6.30;;;5.70;;
24635;SDS011;12772;49.794;10.024;2023-02-28T12:36:23;7.07;;;6.35;;
24635;SDS011;12772;49.794;10.024;2023-02-28T12:40:28;6.60;;;5.90;;
24635;SDS011;12772;49.794;10.024;2023-02-28T12:48:55;7.22;;;6.53;;
24635;SDS011;12772;49.794;10.024;2023-02-28T12:53:01;7.30;;;6.60;;
24635;SDS011;12772;49.794;10.024;2023-02-28T13:06:37;9.85;;;7.00;;
24635;SDS011;12772;49.794;10.024;2023-02-28T13:10:57;8.60;;;7.15;;
24635;SDS011;12772;49.794;10.024;2023-02-28T13:15:16;7.38;;;6.30;;
24635;SDS011;12772;49.794;10.024;2023-02-28T13:19:22;6.85;;;6.18;;
24635;SDS011;12772;49.794;10.024;2023-02-28T13:27:55;7.18;;;6.32;;
24635;SDS011;12772;49.794;10.024;2023-02-28T13:40:27;7.55;;;6.65;;
24635;SDS011;12772;49.794;10.024;2023-02-28T13:45:18;7.28;;;6.40;;
24635;SDS011;12772;49.794;10.024;2023-02-28T13:49:24;8.85;;;6.45;;
24635;SDS011;12772;49.794;10.024;2023-02-28T13:54:12;6.72;;;6.13;;
24635;SDS011;12772;49.794;10.024;2023-02-28T13:58:10;7.07;;;6.43;;
24635;SDS011;12772;49.794;10.024;2023-02-28T14:06:39;7.25;;;6.55;;
24635;SDS011;12772;49.794;10.024;2023-02-28T14:11:03;7.38;;;6.65;;
24635;SDS011;12772;49.794;10.024;2023-02-28T14:19:39;8.30;;;6.80;;
24635;SDS011;12772;49.794;10.024;2023-02-28T14:23:52;7.45;;;6.38;;
24635;SDS011;12772;49.794;10.024;2023-02-28T14:28:18;7.57;;;6.70;;
24635;SDS011;12772;49.794;10.024;2023-02-28T14:32:35;6.80;;;6.10;;
24635;SDS011;12772;49.794;10.024;2023-02-28T14:36:49;7.38;;;6.47;;
24635;SDS011;12772;49.794;10.024;2023-02-28T14:40:55;7.22;;;6.53;;
24635;SDS011;12772;49.794;10.024;2023-02-28T14:44:59;7.25;;;6.57;;
24635;SDS011;12772;49.794;10.024;2023-02-28T14:49:03;7.57;;;5.85;;
24635;SDS011;12772;49.794;10.024;2023-02-28T14:53:10;7.47;;;6.68;;
24635;SDS011;12772;49.794;10.024;2023-02-28T15:01:27;6.72;;;6.03;;
24635;SDS011;12772;49.794;10.024;2023-02-28T15:05:31;9.73;;;6.90;;
24635;SDS011;12772;49.794;10.024;2023-02-28T15:09:34;7.65;;;6.55;;
24635;SDS011;12772;49.794;10.024;2023-02-28T15:13:43;7.95;;;6.82;;
24635;SDS011;12772;49.794;10.024;2023-02-28T15:17:51;6.90;;;6.20;;
24635;SDS011;12772;49.794;10.024;2023-02-28T15:26:32;6.47;;;5.88;;
24635;SDS011;12772;49.794;10.024;2023-02-28T15:30:36;7.10;;;6.20;;
24635;SDS011;12772;49.794;10.024;2023-02-28T15:34:39;7.57;;;6.13;;
24635;SDS011;12772;49.794;10.024;2023-02-28T15:38:43;8.35;;;6.22;;
24635;SDS011;12772;49.794;10.024;2023-02-28T15:47:16;6.63;;;6.00;;
24635;SDS011;12772;49.794;10.024;2023-02-28T15:51:24;6.38;;;5.78;;
24635;SDS011;12772;49.794;10.024;2023-02-28T15:55:33;7.57;;;6.88;;
24635;SDS011;12772;49.794;10.024;2023-02-28T15:59:37;7.90;;;6.13;;
24635;SDS011;12772;49.794;10.024;2023-02-28T16:03:49;8.10;;;5.53;;
24635;SDS011;12772;49.794;10.024;2023-02-28T16:07:53;5.85;;;5.28;;
24635;SDS011;12772;49.794;10.024;2023-02-28T16:11:58;9.32;;;6.85;;
24635;SDS011;12772;49.794;10.024;2023-02-28T16:16:02;8.13;;;7.25;;
24635;SDS011;12772;49.794;10.024;2023-02-28T16:20:39;8.82;;;7.90;;
24635;SDS011;12772;49.794;10.024;2023-02-28T16:24:33;7.80;;;6.55;;
24635;SDS011;12772;49.794;10.024;2023-02-28T16:28:36;7.38;;;6.20;;
24635;SDS011;12772;49.794;10.024;2023-02-28T16:32:40;11.13;;;9.18;;
24635;SDS011;12772;49.794;10.024;2023-02-28T16:36:42;11.88;;;9.07;;
24635;SDS011;12772;49.794;10.024;2023-02-28T16:40:47;13.82;;;10.60;;
24635;SDS011;12772;49.794;10.024;2023-02-28T16:44:51;14.63;;;10.45;;
24635;SDS011;12772;49.794;10.024;2023-02-28T16:48:54;11.07;;;8.77;;
24635;SDS011;12772;49.794;10.024;2023-02-28T16:52:59;11.45;;;8.82;;
24635;SDS011;12772;49.794;10.024;2023-02-28T16:57:01;12.10;;;9.48;;
24635;SDS011;12772;49.794;10.024;2023-02-28T17:01:04;9.13;;;8.18;;
24635;SDS011;12772;49.794;10.024;2023-02-28T17:05:06;10.65;;;8.48;;
24635;SDS011;12772;49.794;10.024;2023-02-28T17:09:14;9.13;;;8.23;;
24635;SDS011;12772;49.794;10.024;2023-02-28T17:13:19;12.82;;;9.80;;
24635;SDS011;12772;49.794;10.024;2023-02-28T17:17:21;12.80;;;9.77;;
24635;SDS011;12772;49.794;10.024;2023-02-28T17:21:23;12.25;;;8.93;;
24635;SDS011;12772;49.794;10.024;2023-02-28T17:25:25;11.73;;;8.55;;
24635;SDS011;12772;49.794;10.024;2023-02-28T17:29:27;10.30;;;8.20;;
24635;SDS011;12772;49.794;10.024;2023-02-28T17:33:29;9.48;;;7.95;;
24635;SDS011;12772;49.794;10.024;2023-02-28T17:37:31;9.90;;;7.57;;
24635;SDS011;12772;49.794;10.024;2023-02-28T17:41:33;10.23;;;7.55;;
24635;SDS011;12772;49.794;10.024;2023-02-28T17:45:35;10.60;;;7.88;;
24635;SDS011;12772;49.794;10.024;2023-02-28T17:49:38;12.73;;;8.43;;
24635;SDS011;12772;49.794;10.024;2023-02-28T17:53:40;16.58;;;10.13;;
24635;SDS011;12772;49.794;10.024;2023-02-28T17:57:42;22.65;;;12.73;;
24635;SDS011;12772;49.794;10.024;2023-02-28T18:01:44;23.17;;;12.73;;
24635;SDS011;12772;49.794;10.024;2023-02-28T18:05:47;21.75;;;13.23;;
24635;SDS011;12772;49.794;10.024;2023-02-28T18:09:49;14.57;;;10.35;;
24635;SDS011;12772;49.794;10.024;2023-02-28T18:13:52;19.33;;;11.30;;
24635;SDS011;12772;49.794;10.024;2023-02-28T18:17:56;18.85;;;11.95;;
24635;SDS011;12772;49.794;10.024;2023-02-28T18:21:58;17.15;;;10.15;;
24635;SDS011;12772;49.794;10.024;2023-02-28T18:26:00;19.05;;;11.00;;
24635;SDS011;12772;49.794;10.024;2023-02-28T18:30:03;18.98;;;11.10;;
24635;SDS011;12772;49.794;10.024;2023-02-28T18:34:06;19.23;;;10.70;;
24635;SDS011;12772;49.794;10.024;2023-02-28T18:38:10;19.27;;;12.57;;
24635;SDS011;12772;49.794;10.024;2023-02-28T18:42:14;16.30;;;11.40;;
24635;SDS011;12772;49.794;10.024;2023-02-28T18:46:17;13.93;;;10.00;;
24635;SDS011;12772;49.794;10.024;2023-02-28T18:50:19;13.82;;;10.68;;
24635;SDS011;12772;49.794;10.024;2023-02-28T18:54:22;14.40;;;10.05;;
24635;SDS011;12772;49.794;10.024;2023-02-28T18:58:24;13.73;;;9.05;;
24635;SDS011;12772;49.794;10.024;2023-02-28T19:02:26;9.85;;;8.45;;
24635;SDS011;12772;49.794;10.024;2023-02-28T19:06:29;11.18;;;7.75;;
24635;SDS011;12772;49.794;10.024;2023-02-28T19:10:32;9.63;;;7.93;;
24635;SDS011;12772;49.794;10.024;2023-02-28T19:14:34;13.82;;;7.95;;
24635;SDS011;12772;49.794;10.024;2023-02-28T19:18:36;11.77;;;8.82;;
24635;SDS011;12772;49.794;10.024;2023-02-28T19:22:39;11.02;;;8.50;;
24635;SDS011;12772;49.794;10.024;2023-02-28T19:26:41;10.60;;;7.75;;
24635;SDS011;12772;49.794;10.024;2023-02-28T19:30:46;10.35;;;7.78;;
24635;SDS011;12772;49.794;10.024;2023-02-28T19:34:50;8.93;;;7.63;;
24635;SDS011;12772;49.794;10.024;2023-02-28T19:38:52;9.90;;;8.27;;
24635;SDS011;12772;49.794;10.024;2023-02-28T19:42:54;11.23;;;8.73;;
24635;SDS011;12772;49.794;10.024;2023-02-28T19:46:57;12.57;;;9.10;;
24635;SDS011;12772;49.794;10.024;2023-02-28T19:51:00;14.80;;;9.80;;
24635;SDS011;12772;49.794;10.024;2023-02-28T19:55:04;11.43;;;8.75;;
24635;SDS011;12772;49.794;10.024;2023-02-28T19:59:06;11.60;;;8.23;;
24635;SDS011;12772;49.794;10.024;2023-02-28T20:03:09;9.70;;;7.60;;
24635;SDS011;12772;49.794;10.024;2023-02-28T20:07:11;10.73;;;8.25;;
24635;SDS011;12772;49.794;10.024;2023-02-28T20:11:14;11.63;;;8.50;;
24635;SDS011;12772;49.794;10.024;2023-02-28T20:15:17;8.30;;;7.38;;
24635;SDS011;12772;49.794;10.024;2023-02-28T20:19:19;10.70;;;8.15;;
24635;SDS011;12772;49.794;10.024;2023-02-28T20:23:22;12.55;;;7.40;;
24635;SDS011;12772;49.794;10.024;2023-02-28T20:27:29;12.02;;;8.60;;
24635;SDS011;12772;49.794;10.024;2023-02-28T20:31:33;9.80;;;8.35;;
24635;SDS011;12772;49.794;10.024;2023-02-28T20:35:37;10.15;;;7.85;;
24635;SDS011;12772;49.794;10.024;2023-02-28T20:39:39;9.63;;;8.25;;
24635;SDS011;12772;49.794;10.024;2023-02-28T20:43:41;10.95;;;8.13;;
24635;SDS011;12772;49.794;10.024;2023-02-28T20:47:43;9.95;;;8.93;;
24635;SDS011;12772;49.794;10.024;2023-02-28T20:51:45;10.38;;;9.23;;
24635;SDS011;12772;49.794;10.024;2023-02-28T20:55:54;13.35;;;9.68;;
24635;SDS011;12772;49.794;10.024;2023-02-28T21:00:01;17.35;;;10.25;;
24635;SDS011;12772;49.794;10.024;2023-02-28T21:04:04;16.80;;;10.48;;
24635;SDS011;12772;49.794;10.024;2023-02-28T21:08:07;20.42;;;11.85;;
24635;SDS011;12772;49.794;10.024;2023-02-28T21:12:09;19.55;;;12.43;;
24635;SDS011;12772;49.794;10.024;2023-02-28T21:16:12;19.00;;;10.95;;
24635;SDS011;12772;49.794;10.024;2023-02-28T21:20:16;16.90;;;11.43;;
24635;SDS011;12772;49.794;10.024;2023-02-28T21:24:22;13.25;;;9.75;;
24635;SDS011;12772;49.794;10.024;2023-02-28T21:28:24;14.52;;;10.73;;
24635;SDS011;12772;49.794;10.024;2023-02-28T21:32:26;15.23;;;11.15;;
24635;SDS011;12772;49.794;10.024;2023-02-28T21:36:29;15.00;;;10.95;;
24635;SDS011;12772;49.794;10.024;2023-02-28T21:40:32;13.33;;;11.07;;
24635;SDS011;12772;49.794;10.024;2023-02-28T21:44:34;15.60;;;10.73;;
24635;SDS011;12772;49.794;10.024;2023-02-28T21:48:37;17.02;;;12.52;;
24635;SDS011;12772;49.794;10.024;2023-02-28T21:52:39;20.40;;;12.40;;
24635;SDS011;12772;49.794;10.024;2023-02-28T21:56:41;14.83;;;10.70;;
24635;SDS011;12772;49.794;10.024;2023-02-28T22:00:43;15.10;;;10.75;;
24635;SDS011;12772;49.794;10.024;2023-02-28T22:04:47;14.00;;;11.23;;
24635;SDS011;12772;49.794;10.024;2023-02-28T22:08:53;14.82;;;10.50;;
24635;SDS011;12772;49.794;10.024;2023-02-28T22:12:56;19.13;;;11.30;;
24635;SDS011;12772;49.794;10.024;2023-02-28T22:17:01;17.58;;;12.05;;
24635;SDS011;12772;49.794;10.024;2023-02-28T22:21:03;20.03;;;12.20;;
24635;SDS011;12772;49.794;10.024;2023-02-28T22:25:06;16.65;;;11.40;;
24635;SDS011;12772;49.794;10.024;2023-02-28T22:29:09;15.43;;;10.27;;
24635;SDS011;12772;49.794;10.024;2023-02-28T22:33:11;15.70;;;10.02;;
24635;SDS011;12772;49.794;10.024;2023-02-28T22:37:14;17.27;;;10.80;;
24635;SDS011;12772;49.794;10.024;2023-02-28T22:41:16;19.37;;;11.23;;
24635;SDS011;12772;49.794;10.024;2023-02-28T22:45:21;15.52;;;10.43;;
24635;SDS011;12772;49.794;10.024;2023-02-28T22:49:23;14.07;;;11.90;;
24635;SDS011;12772;49.794;10.024;2023-02-28T22:53:25;13.63;;;11.33;;
24635;SDS011;12772;49.794;10.024;2023-02-28T22:57:27;13.77;;;10.60;;
24635;SDS011;12772;49.794;10.024;2023-02-28T23:01:30;14.38;;;10.57;;
24635;SDS011;12772;49.794;10.024;2023-02-28T23:05:33;16.85;;;11.88;;
24635;SDS011;12772;49.794;10.024;2023-02-28T23:09:36;29.47;;;12.77;;
24635;SDS011;12772;49.794;10.024;2023-02-28T23:13:38;11.90;;;9.18;;
24635;SDS011;12772;49.794;10.024;2023-02-28T23:17:40;13.30;;;10.53;;
24635;SDS011;12772;49.794;10.024;2023-02-28T23:21:43;12.77;;;10.73;;
24635;SDS011;12772;49.794;10.024;2023-02-28T23:25:45;13.07;;;10.10;;
24635;SDS011;12772;49.794;10.024;2023-02-28T23:29:47;17.57;;;11.07;;
24635;SDS011;12772;49.794;10.024;2023-02-28T23:33:49;13.77;;;10.97;;
24635;SDS011;12772;49.794;10.024;2023-02-28T23:37:51;14.77;;;10.83;;
24635;SDS011;12772;49.794;10.024;2023-02-28T23:41:56;14.17;;;10.63;;
24635;SDS011;12772;49.794;10.024;2023-02-28T23:45:59;12.93;;;10.77;;
24635;SDS011;12772;49.794;10.024;2023-02-28T23:50:01;13.47;;;10.10;;
24635;SDS011;12772;49.794;10.024;2023-02-28T23:54:04;12.77;;;11.10;;
24635;SDS011;12772;49.794;10.024;2023-02-28T23:58:06;14.33;;;12.33;;
